world map with NMT marked

NMT - Airport

This information may not be accurate or current and is not valid for navigation or flight planning. No warranty of fitness for any purpose is made or implied.

flag of Shanflag of Myanmar (Burma)

Donate via PayPal

Additional information is available on the NEW Great Circle Mapper

Location
City:  Namtu, Shan, Myanmar (Burma)
ICAO / IATA:VYNT / NMT

Details
Type:Airport (Aerodrome, Airfield)
Latitude:23°05'N (23.083)
Longitude:97°23'E (97.383)
Elevation:2000 ft (610 m)

Time
Timezone:UTC+6:30 (DST+8:30)
Local Time:

Weather
METAR:VYNT  041300Z 12004KT 5000 FEW018 24/14 Q1013
TAF:VYNT  041100Z 0412/0512 35006KT 5000 FEW020 TEMPO 0412/0418 02005KT 5000 FEW025

Related Locations
Nearby:
Farthest:SCFX: 12163 mi / 19575 km
Isla San Félix, Desventuradas Islands, VS, CL

Find:

   beyond  
but within

Other Information
Maps:
Sources:

  


 


Great Circle Mapper   Great Circle Mapper
Great Circle Mapper FAQ   Great Circle Mapper FAQ
  Karl's Home Page
KLS²   KLS² Home
   GC on Facebook
Airlines of the World   Airlines of the World
Donate via PayPal


Copyright © 2004-2020, Karl L. Swartz. All rights reserved.
All trademarks mentioned herein belong to their respective owners.

Please see credits for attribution and copyright information.

Karl Swartz <karl@kls2.com>
  Powered by FreeBSD
Valid HTML 4.01!
Labeled with ICRA
hCard Microformat
Geo Microformat